Time;durP1;ratioP1;P1;durP2;ratioP2;P2;SDS_P1;SDS_P2;PMS_P1;PMS_P2;Temp;Humidity;BMP_temperature;BMP_pressure;BME280_temperature;BME280_humidity;BME280_pressure;Samples;Min_cycle;Max_cycle;Signal;HPM_P1;HPM_P2
2023/02/10 00:01:28;;;;;;;83.60;75.85;;;;;;;-1.90;62.74;101717.14;1690353;84;25567;-51
2023/02/10 00:03:57;;;;;;;85.77;77.55;;;;;;;-1.89;62.80;101702.88;1690476;84;27328;-49
2023/02/10 00:06:26;;;;;;;66.67;58.45;;;;;;;-1.92;62.80;101697.95;1690280;84;25542;-49
2023/02/10 00:09:01;;;;;;;56.23;41.98;;;;;;;-1.92;63.01;101703.77;1690373;84;25461;-49
2023/02/10 00:14:19;;;;;;;86.82;78.45;;;;;;;-1.94;63.10;101693.84;1670810;84;25491;-49
2023/02/10 00:16:45;;;;;;;89.32;81.02;;;;;;;-1.95;63.26;101689.56;1690335;84;28102;-49
2023/02/10 00:19:11;;;;;;;89.42;80.70;;;;;;;-1.94;63.27;101684.07;1669915;84;25581;-49
2023/02/10 00:21:37;;;;;;;87.97;78.87;;;;;;;-1.96;63.16;101677.30;1690295;84;25469;-49
2023/02/10 00:24:07;;;;;;;75.85;68.37;;;;;;;-1.97;63.22;101679.14;1690239;84;27489;-49
2023/02/10 00:26:35;;;;;;;72.53;65.15;;;;;;;-1.98;63.32;101671.38;1690470;84;25647;-48
2023/02/10 00:29:03;;;;;;;83.92;75.35;;;;;;;-2.00;63.32;101672.89;1690304;84;27411;-50
2023/02/10 00:31:32;;;;;;;96.85;88.00;;;;;;;-2.02;63.46;101666.96;1690207;84;25425;-50
2023/02/10 00:33:58;;;;;;;67.58;61.33;;;;;;;-2.05;63.57;101679.27;1690558;84;25402;-50
2023/02/10 00:36:24;;;;;;;98.00;88.40;;;;;;;-2.03;63.81;101679.89;1690262;84;25622;-52
2023/02/10 00:38:53;;;;;;;96.35;87.12;;;;;;;-2.03;63.87;101685.20;1690235;84;25399;-52
2023/02/10 00:41:24;;;;;;;66.05;59.50;;;;;;;-2.04;64.01;101677.44;1690422;84;29509;-51
2023/02/10 00:43:52;;;;;;;44.58;35.00;;;;;;;-2.04;63.86;101676.95;1690212;84;25399;-50
2023/02/10 00:46:21;;;;;;;59.90;53.42;;;;;;;-2.04;63.94;101677.44;1690383;84;25560;-49
2023/02/10 00:48:50;;;;;;;71.40;63.95;;;;;;;-2.07;64.13;101672.02;1694105;84;25440;-51
2023/02/10 00:51:18;;;;;;;68.27;61.23;;;;;;;-2.09;64.07;101672.72;1696854;83;25394;-48
2023/02/10 00:53:49;;;;;;;72.82;65.40;;;;;;;-2.11;64.15;101659.66;1696515;84;27337;-52
2023/02/10 00:56:17;;;;;;;72.40;64.92;;;;;;;-2.13;64.22;101659.52;1696532;83;25628;-49
2023/02/10 00:58:47;;;;;;;62.88;56.83;;;;;;;-2.13;64.24;101662.16;1696666;83;25469;-48
2023/02/10 01:01:16;;;;;;;68.90;61.90;;;;;;;-2.16;64.36;101655.43;1696691;84;25576;-50
2023/02/10 01:03:45;;;;;;;39.92;26.23;;;;;;;-2.19;64.13;101647.85;1688535;84;25612;-50
2023/02/10 01:06:15;;;;;;;45.52;25.55;;;;;;;-2.22;64.49;101653.53;1696673;83;27404;-49
2023/02/10 01:08:43;;;;;;;36.38;17.87;;;;;;;-2.24;64.45;101656.07;1696499;83;25608;-50
2023/02/10 01:11:13;;;;;;;40.65;19.52;;;;;;;-2.27;64.53;101663.88;1696482;84;25400;-50
2023/02/10 01:13:42;;;;;;;37.67;18.20;;;;;;;-2.29;64.77;101672.02;1696558;83;25403;-50
2023/02/10 01:16:14;;;;;;;32.55;14.15;;;;;;;-2.31;64.72;101672.72;1696588;83;25575;-49
2023/02/10 01:18:43;;;;;;;37.38;19.10;;;;;;;-2.33;64.69;101669.96;1696660;84;28043;-49
2023/02/10 01:21:18;;;;;;;45.00;35.45;;;;;;;-2.37;64.80;101657.56;1696628;84;25618;-49
2023/02/10 01:23:46;;;;;;;33.88;13.65;;;;;;;-2.39;64.97;101658.27;1696350;83;25617;-49
2023/02/10 01:26:15;;;;;;;31.83;14.27;;;;;;;-2.43;64.90;101654.37;1696724;83;25443;-53
2023/02/10 01:28:44;;;;;;;30.95;27.25;;;;;;;-2.46;65.01;101659.52;1696768;84;25455;-50
2023/02/10 01:31:16;;;;;;;73.35;66.22;;;;;;;-2.50;64.88;101659.59;1696767;83;27399;-52
2023/02/10 01:33:45;;;;;;;94.87;86.22;;;;;;;-2.53;65.00;101659.16;1696560;84;25564;-50
2023/02/10 01:36:16;;;;;;;72.15;65.03;;;;;;;-2.56;65.46;101659.02;1696797;84;25491;-51
2023/02/10 01:38:46;;;;;;;93.25;84.97;;;;;;;-2.58;65.48;101655.73;1696443;84;25594;-50
2023/02/10 01:41:17;;;;;;;91.92;83.37;;;;;;;-2.60;65.48;101655.62;1696698;84;25393;-49
2023/02/10 01:44:01;;;;;;;94.62;86.02;;;;;;;-2.65;65.62;101645.58;1696595;83;27399;-50
2023/02/10 01:46:32;;;;;;;96.15;86.92;;;;;;;-2.69;65.61;101648.27;1696323;83;25608;-48
2023/02/10 01:49:04;;;;;;;93.80;85.45;;;;;;;-2.73;65.62;101642.53;1692831;84;25584;-49
2023/02/10 01:51:46;;;;;;;94.40;85.85;;;;;;;-2.76;65.57;101644.74;1660989;86;25437;-48
2023/02/10 01:54:18;;;;;;;96.53;86.97;;;;;;;-2.80;65.93;101640.84;1660983;86;25613;-52
2023/02/10 01:56:49;;;;;;;43.10;19.90;;;;;;;-2.84;66.01;101646.50;1660921;86;27396;-48
2023/02/10 01:59:19;;;;;;;34.13;14.45;;;;;;;-2.87;65.84;101648.70;1670963;85;25557;-49
2023/02/10 02:01:51;;;;;;;30.00;13.83;;;;;;;-2.92;66.15;101646.61;1671326;85;25384;-50
2023/02/10 02:04:19;;;;;;;32.58;13.90;;;;;;;-2.96;66.09;101642.70;1671334;85;25634;-52
2023/02/10 02:06:46;;;;;;;27.80;13.53;;;;;;;-2.98;66.39;101649.17;1671326;85;25634;-49
2023/02/10 02:09:14;;;;;;;34.40;13.40;;;;;;;-3.03;66.57;101641.30;1661567;85;27388;-49
2023/02/10 02:12:04;;;;;;;20.52;9.88;;;;;;;-3.05;66.48;101641.99;1671480;85;25653;-49
2023/02/10 02:14:54;;;;;;;39.55;13.95;;;;;;;-3.07;66.65;101640.52;1671392;85;25458;-50
2023/02/10 02:18:00;;;;;;;28.90;13.65;;;;;;;-3.13;67.02;101631.50;1671319;85;25468;-49
2023/02/10 02:21:02;;;;;;;37.63;13.40;;;;;;;-3.15;67.09;101641.47;1614501;87;25460;-49
2023/02/10 02:23:46;;;;;;;37.35;13.53;;;;;;;-3.18;67.21;101635.20;1614522;88;27431;-48
2023/02/10 02:26:33;;;;;;;28.23;12.53;;;;;;;-3.15;67.61;101641.94;1614445;88;25676;-49
2023/02/10 02:29:21;;;;;;;27.48;12.47;;;;;;;-3.18;67.27;101639.17;1614510;88;25530;-49
2023/02/10 02:32:03;;;;;;;32.35;13.72;;;;;;;-3.20;67.55;101638.55;1614482;88;26553;-49
2023/02/10 02:34:52;;;;;;;31.07;13.45;;;;;;;-3.21;67.62;101632.92;1609692;88;25511;-49
2023/02/10 02:37:34;;;;;;;;;;;;;;;-3.23;67.59;101630.45;1616962;88;27319;-49
2023/02/10 02:40:02;;;;;;;27.17;12.90;;;;;;;-3.26;67.90;101637.44;1614465;88;25831;-51
2023/02/10 02:42:34;;;;;;;30.05;13.75;;;;;;;-3.27;67.81;101641.11;1614656;88;25677;-51
2023/02/10 02:45:18;;;;;;;28.10;13.55;;;;;;;-3.27;68.03;101637.14;1614640;88;25680;-48
2023/02/10 02:48:09;;;;;;;31.30;14.70;;;;;;;-3.28;67.92;101632.03;1614698;88;25475;-49
2023/02/10 02:50:56;;;;;;;37.65;16.02;;;;;;;-3.28;68.14;101630.70;1614660;88;27367;-49
2023/02/10 02:53:48;;;;;;;33.18;23.50;;;;;;;-3.29;68.08;101629.05;1614546;88;25472;-50
2023/02/10 02:56:44;;;;;;;31.37;13.43;;;;;;;-3.32;68.14;101629.41;1643343;85;25633;-49
2023/02/10 02:59:45;;;;;;;47.38;33.13;;;;;;;-3.35;68.23;101624.00;1671375;85;25425;-49
2023/02/10 03:02:14;;;;;;;55.83;50.12;;;;;;;-3.35;68.80;101627.13;1671212;85;25554;-49
2023/02/10 03:04:44;;;;;;;63.83;57.58;;;;;;;-3.34;69.14;101623.48;1671448;85;27923;-50
2023/02/10 03:07:10;;;;;;;73.55;66.65;;;;;;;-3.33;69.17;101618.02;1660891;86;25616;-52
2023/02/10 03:09:38;;;;;;;83.07;75.15;;;;;;;-3.32;69.14;101614.86;1671385;84;25563;-47
2023/02/10 03:12:07;;;;;;;87.22;78.72;;;;;;;-3.31;69.01;101621.30;1671384;84;26088;-50
2023/02/10 03:14:33;;;;;;;76.77;68.75;;;;;;;-3.26;69.37;101620.75;1685136;84;25588;-49
2023/02/10 03:17:00;;;;;;;70.53;63.97;;;;;;;-3.22;69.24;101624.66;1671364;85;27416;-52
2023/02/10 03:19:26;;;;;;;93.55;85.03;;;;;;;-3.19;69.37;101621.13;1671287;85;25476;-50
2023/02/10 03:21:52;;;;;;;94.60;85.75;;;;;;;-3.13;69.72;101626.69;1661414;85;25439;-50
2023/02/10 03:24:18;;;;;;;94.65;85.70;;;;;;;-3.10;69.50;101617.91;1671390;85;25453;-52
2023/02/10 03:26:44;;;;;;;73.75;67.08;;;;;;;-3.04;69.82;101616.33;1671405;85;25591;-52
2023/02/10 03:29:14;;;;;;;73.70;66.65;;;;;;;-2.99;69.48;101609.16;1671372;85;27306;-49
2023/02/10 03:31:41;;;;;;;;;;;;;;;-2.95;69.41;101608.58;1673827;85;25783;-52
2023/02/10 03:34:10;;;;;;;77.90;70.47;;;;;;;-2.93;69.27;101602.59;1671445;85;25576;-49
2023/02/10 03:36:38;;;;;;;62.25;56.10;;;;;;;-2.91;69.31;101602.41;1671588;85;25463;-50
2023/02/10 03:39:05;;;;;;;92.05;83.85;;;;;;;-2.89;69.16;101609.68;1671395;85;25503;-49
2023/02/10 03:41:35;;;;;;;96.45;87.97;;;;;;;-2.88;69.06;101609.50;1671326;85;27382;-50
2023/02/10 03:44:01;;;;;;;93.37;85.20;;;;;;;-2.86;69.31;101607.47;1671312;85;25651;-49
2023/02/10 03:46:27;;;;;;;49.10;44.40;;;;;;;-2.85;69.01;101601.16;1671370;85;25567;-49
2023/02/10 03:48:53;;;;;;;32.40;17.07;;;;;;;-2.83;69.01;101607.59;1676053;84;25840;-49
2023/02/10 03:51:21;;;;;;;35.23;20.88;;;;;;;-2.80;69.17;101603.77;1691109;84;25387;-49
2023/02/10 03:53:47;;;;;;;31.80;12.78;;;;;;;-2.79;69.03;101593.47;1691014;84;27320;-49
2023/02/10 03:56:16;;;;;;;31.25;13.35;;;;;;;-2.77;69.19;101595.45;1690926;84;25558;-50
2023/02/10 03:58:42;;;;;;;20.70;9.43;;;;;;;-2.77;68.88;101590.95;1691233;84;25506;-50
2023/02/10 04:01:17;;;;;;;29.85;13.55;;;;;;;-2.76;68.97;101591.77;1690962;84;25527;-50
2023/02/10 04:03:46;;;;;;;29.75;12.33;;;;;;;-2.72;68.97;101608.94;1691144;84;25620;-50
2023/02/10 04:06:14;;;;;;;32.58;13.80;;;;;;;-2.70;69.06;101606.92;1691161;84;27340;-50
2023/02/10 04:08:41;;;;;;;32.78;13.32;;;;;;;-2.68;69.09;101606.22;1690971;84;26072;-49
2023/02/10 04:11:09;;;;;;;31.10;13.95;;;;;;;-2.66;68.92;101612.95;1691032;84;25456;-50
2023/02/10 04:13:37;;;;;;;31.42;15.40;;;;;;;-2.65;68.95;101614.61;1691144;84;25449;-50
2023/02/10 04:16:12;;;;;;;30.43;13.27;;;;;;;-2.63;68.89;101609.13;1691319;84;25437;-53
2023/02/10 04:18:41;;;;;;;34.38;14.43;;;;;;;-2.63;68.81;101613.91;1691083;84;27408;-50
2023/02/10 04:21:11;;;;;;;38.33;14.05;;;;;;;-2.61;68.76;101614.23;1691048;84;25594;-50
2023/02/10 04:23:38;;;;;;;34.83;15.75;;;;;;;-2.60;68.93;101601.31;1691101;84;25415;-49
2023/02/10 04:26:06;;;;;;;32.75;14.83;;;;;;;-2.56;69.08;101607.86;1691039;84;25587;-49
2023/02/10 04:28:32;;;;;;;32.95;15.55;;;;;;;-2.54;68.90;101607.16;1691054;84;25611;-50
2023/02/10 04:31:01;;;;;;;31.97;13.58;;;;;;;-2.52;68.84;101619.23;1691070;84;27261;-49
2023/02/10 04:33:30;;;;;;;34.08;13.50;;;;;;;-2.51;68.90;101621.36;1691070;84;29108;-49
2023/02/10 04:35:58;;;;;;;30.95;12.70;;;;;;;-2.50;68.75;101620.37;1690937;84;25669;-49
2023/02/10 04:38:26;;;;;;;33.73;17.87;;;;;;;-2.48;68.72;101620.48;1690911;84;27477;-49
2023/02/10 04:40:52;;;;;;;26.93;16.00;;;;;;;-2.46;68.57;101626.91;1690986;84;25399;-50
2023/02/10 04:43:21;;;;;;;33.38;14.35;;;;;;;-2.45;68.66;101621.42;1691045;84;28023;-50
2023/02/10 04:45:47;;;;;;;41.73;18.73;;;;;;;-2.43;68.55;101627.87;1690871;84;25533;-49
2023/02/10 04:48:15;;;;;;;34.20;18.62;;;;;;;-2.44;68.58;101618.27;1691004;84;25384;-49
2023/02/10 04:50:43;;;;;;;32.40;19.20;;;;;;;-2.44;68.56;101619.59;1677940;84;25709;-50
2023/02/10 04:53:11;;;;;;;30.35;16.32;;;;;;;-2.42;68.63;101609.61;1675739;84;25627;-48
2023/02/10 04:55:39;;;;;;;29.15;14.55;;;;;;;-2.41;68.60;101612.59;1663163;85;27081;-50
2023/02/10 04:58:07;;;;;;;28.98;14.55;;;;;;;-2.39;68.46;101603.94;1685250;85;25420;-49
2023/02/10 05:00:36;;;;;;;34.90;18.20;;;;;;;-2.37;68.51;101595.80;1684792;85;25464;-49
2023/02/10 05:03:04;;;;;;;32.20;16.20;;;;;;;-2.33;68.55;101591.77;1685310;85;25466;-49
2023/02/10 05:05:33;;;;;;;37.00;23.87;;;;;;;-2.32;68.48;101588.91;1684926;85;25629;-48
2023/02/10 05:07:59;;;;;;;37.53;22.22;;;;;;;-2.30;68.55;101586.91;1685456;85;27309;-48
2023/02/10 05:10:25;;;;;;;39.23;24.80;;;;;;;-2.26;68.54;101592.13;1674946;85;25584;-49
2023/02/10 05:12:52;;;;;;;44.93;38.48;;;;;;;-2.21;68.65;101598.19;1684773;85;25551;-48
2023/02/10 05:15:20;;;;;;;39.13;33.13;;;;;;;-2.17;68.61;101606.58;1685265;85;25407;-49
2023/02/10 05:17:46;;;;;;;48.75;43.75;;;;;;;-2.11;68.59;101599.16;1662506;85;25654;-49
2023/02/10 05:20:12;;;;;;;49.93;41.77;;;;;;;-2.06;68.54;101596.75;1685232;85;27438;-49
2023/02/10 05:22:40;;;;;;;50.50;45.40;;;;;;;-2.00;68.41;101587.22;1684676;85;25411;-49
2023/02/10 05:25:09;;;;;;;54.93;49.13;;;;;;;-1.97;68.40;101585.00;1685264;85;25483;-49
2023/02/10 05:27:37;;;;;;;62.27;56.58;;;;;;;-1.93;68.29;101592.87;1684894;85;26106;-52
2023/02/10 05:30:09;;;;;;;58.23;51.77;;;;;;;-1.90;68.24;101578.41;1685301;85;25598;-51
2023/02/10 05:32:35;;;;;;;65.25;58.25;;;;;;;-1.86;67.86;101578.33;1684871;85;27297;-51
2023/02/10 05:35:07;;;;;;;68.02;61.83;;;;;;;-1.83;67.92;101581.92;1685218;85;25575;-50
2023/02/10 05:37:33;;;;;;;87.72;79.85;;;;;;;-1.82;67.87;101567.66;1684837;85;25407;-49
2023/02/10 05:40:02;;;;;;;91.95;83.78;;;;;;;-1.78;67.88;101575.52;1685192;85;25551;-50
2023/02/10 05:42:28;;;;;;;95.62;87.15;;;;;;;-1.77;67.81;101565.23;1684981;85;26571;-53
2023/02/10 05:44:54;;;;;;;95.38;87.17;;;;;;;-1.73;67.81;101585.04;1685275;85;27369;-49
2023/02/10 05:47:21;;;;;;;94.10;85.60;;;;;;;-1.71;67.92;101590.97;1684724;85;26080;-50
2023/02/10 05:49:47;;;;;;;97.90;88.58;;;;;;;-1.68;67.90;101604.88;1688862;84;25376;-50
2023/02/10 05:52:13;;;;;;;97.05;88.22;;;;;;;-1.65;67.89;101597.34;1695967;83;25644;-50
2023/02/10 05:54:40;;;;;;;97.67;88.42;;;;;;;-1.64;67.74;101599.48;1725563;83;25594;-49
2023/02/10 05:57:08;;;;;;;94.62;85.87;;;;;;;-1.59;67.79;101605.02;1685817;85;27312;-50
2023/02/10 05:59:35;;;;;;;97.85;88.70;;;;;;;-1.60;67.73;101589.61;1690923;84;25561;-50
2023/02/10 06:02:03;;;;;;;96.08;87.78;;;;;;;-1.56;67.82;101615.25;1691031;84;25560;-54
2023/02/10 06:04:32;;;;;;;96.78;88.20;;;;;;;-1.54;67.87;101591.98;1673261;84;25484;-52
2023/02/10 06:07:01;;;;;;;97.17;88.58;;;;;;;-1.52;67.88;101608.01;1685986;85;25399;-53
2023/02/10 06:09:30;;;;;;;92.80;84.52;;;;;;;-1.48;67.82;101600.50;1691140;84;27459;-52
2023/02/10 06:11:56;;;;;;;95.70;87.20;;;;;;;-1.45;67.84;101601.41;1691175;84;25673;-53
2023/02/10 06:14:23;;;;;;;95.10;86.00;;;;;;;-1.44;67.90;101608.88;1691043;84;25653;-49
2023/02/10 06:16:49;;;;;;;92.60;84.20;;;;;;;-1.40;67.99;101610.92;1691078;84;25539;-49
2023/02/10 06:19:17;;;;;;;96.63;87.95;;;;;;;-1.37;68.14;101615.03;1691151;84;25614;-49
2023/02/10 06:21:46;;;;;;;93.12;84.87;;;;;;;-1.35;68.15;101603.70;1691069;84;27368;-49
2023/02/10 06:24:12;;;;;;;97.55;88.25;;;;;;;-1.34;68.17;101619.44;1691022;84;27271;-49
2023/02/10 06:26:39;;;;;;;96.40;88.20;;;;;;;-1.33;68.42;101610.95;1691100;84;25363;-50
2023/02/10 06:29:08;;;;;;;95.38;86.57;;;;;;;-1.31;68.51;101628.86;1691121;84;25460;-51
2023/02/10 06:31:35;;;;;;;95.85;87.62;;;;;;;-1.31;68.60;101618.24;1691257;84;25458;-48
2023/02/10 06:34:01;;;;;;;94.72;85.77;;;;;;;-1.30;68.92;101623.84;1691085;84;27313;-48
2023/02/10 06:36:29;;;;;;;98.90;89.75;;;;;;;-1.28;69.00;101613.03;1691065;84;25368;-50
2023/02/10 06:38:55;;;;;;;96.87;87.85;;;;;;;-1.29;68.98;101613.55;1691124;84;25394;-49
2023/02/10 06:41:21;;;;;;;95.15;86.55;;;;;;;-1.29;69.03;101616.69;1690990;84;25585;-49
2023/02/10 06:43:48;;;;;;;95.92;86.78;;;;;;;-1.30;69.13;101613.22;1691160;84;25399;-51
2023/02/10 06:46:16;;;;;;;96.32;87.62;;;;;;;-1.26;69.20;101634.88;1691123;84;27362;-49
2023/02/10 06:48:42;;;;;;;94.03;85.38;;;;;;;-1.27;69.32;101626.63;1691035;84;25568;-48
2023/02/10 06:51:09;;;;;;;96.97;87.53;;;;;;;-1.23;69.43;101626.02;1691041;84;25594;-48
2023/02/10 06:53:35;;;;;;;98.33;89.05;;;;;;;-1.19;69.24;101637.89;1675140;85;25538;-50
2023/02/10 06:56:06;;;;;;;94.70;86.12;;;;;;;-1.18;69.26;101638.70;1675080;85;25749;-48
2023/02/10 06:58:32;;;;;;;103.35;93.35;;;;;;;-1.16;69.25;101636.66;1674374;85;27340;-48
2023/02/10 07:01:00;;;;;;;98.37;89.28;;;;;;;-1.15;69.41;101639.64;1689705;83;25510;-49
2023/02/10 07:03:28;;;;;;;99.70;90.95;;;;;;;-1.11;69.30;101638.22;1689220;84;26067;-48
2023/02/10 07:05:54;;;;;;;98.82;89.97;;;;;;;-1.07;69.22;101634.66;1689425;84;25707;-48
2023/02/10 07:08:21;;;;;;;94.77;86.28;;;;;;;-1.05;69.05;101628.66;1689518;84;25693;-52
2023/02/10 07:10:47;;;;;;;101.38;91.92;;;;;;;-1.03;69.03;101623.96;1689243;84;28301;-49
2023/02/10 07:13:13;;;;;;;96.95;87.70;;;;;;;-0.97;69.12;101631.95;1689405;84;25982;-48
2023/02/10 07:15:40;;;;;;;97.33;88.27;;;;;;;-0.91;69.17;101624.20;1691076;84;25455;-49
2023/02/10 07:18:06;;;;;;;96.87;87.88;;;;;;;-0.86;68.89;101617.78;1691095;84;25420;-49
2023/02/10 07:20:32;;;;;;;96.35;87.72;;;;;;;-0.83;68.80;101621.38;1691105;84;25538;-50
2023/02/10 07:22:58;;;;;;;94.77;85.87;;;;;;;-0.80;68.86;101619.63;1691080;84;27690;-53
2023/02/10 07:25:25;;;;;;;96.53;88.22;;;;;;;-0.77;68.75;101624.05;1690999;84;25565;-47
2023/02/10 07:27:51;;;;;;;97.72;88.72;;;;;;;-0.71;68.89;101629.06;1691086;84;25403;-50
2023/02/10 07:30:19;;;;;;;94.22;85.90;;;;;;;-0.63;68.80;101627.55;1691008;84;25394;-50
2023/02/10 07:32:47;;;;;;;95.10;86.12;;;;;;;-0.51;68.78;101629.59;1691101;84;25394;-50
2023/02/10 07:35:14;;;;;;;94.77;86.05;;;;;;;-0.42;68.30;101645.16;1691056;84;27394;-49
2023/02/10 07:37:42;;;;;;;101.07;91.40;;;;;;;-0.33;68.52;101652.43;1690948;84;27214;-49
2023/02/10 07:40:11;;;;;;;97.53;88.40;;;;;;;-0.25;68.39;101652.23;1691008;84;25592;-49
2023/02/10 07:42:37;;;;;;;97.22;88.37;;;;;;;-0.10;68.28;101652.05;1691274;84;32335;-50
2023/02/10 07:45:08;;;;;;;96.57;88.07;;;;;;;0.02;67.90;101634.13;1691105;84;25488;-48
2023/02/10 07:47:34;;;;;;;99.47;90.47;;;;;;;0.12;67.73;101640.69;1673246;84;28492;-48
2023/02/10 07:50:00;;;;;;;95.75;86.67;;;;;;;0.16;67.37;101646.41;1690742;84;25545;-52
2023/02/10 07:52:26;;;;;;;31.82;15.23;;;;;;;0.18;67.46;101643.83;1682989;85;25773;-48
2023/02/10 07:54:53;;;;;;;39.10;17.48;;;;;;;0.24;67.34;101649.35;1690257;84;25515;-48
2023/02/10 07:57:20;;;;;;;41.02;17.02;;;;;;;0.25;67.41;101646.48;1682864;85;25388;-49
2023/02/10 07:59:46;;;;;;;41.18;17.95;;;;;;;0.27;67.19;101651.09;1670381;84;27410;-49
2023/02/10 08:02:12;;;;;;;98.05;89.35;;;;;;;0.24;67.37;101646.69;1682783;85;25661;-51
2023/02/10 08:04:39;;;;;;;99.55;89.72;;;;;;;0.19;67.50;101639.35;1690316;84;25645;-50
2023/02/10 08:07:07;;;;;;;95.38;86.28;;;;;;;0.16;67.55;101640.56;1682931;85;25579;-48
2023/02/10 08:09:37;;;;;;;70.62;63.92;;;;;;;0.15;67.82;101632.30;1690618;84;25423;-51
2023/02/10 08:12:06;;;;;;;96.10;87.30;;;;;;;0.21;68.12;101637.81;1682911;85;27874;-50
2023/02/10 08:14:32;;;;;;;97.82;88.25;;;;;;;0.26;67.95;101650.80;1690250;84;25569;-50
2023/02/10 08:17:00;;;;;;;97.02;88.10;;;;;;;0.27;68.24;101638.30;1682879;85;25637;-49
2023/02/10 08:19:27;;;;;;;98.85;89.20;;;;;;;0.33;68.02;101637.48;1690396;84;25427;-52
2023/02/10 08:21:53;;;;;;;98.12;88.45;;;;;;;0.43;68.70;101641.86;1682883;85;25581;-49
2023/02/10 08:24:19;;;;;;;95.38;86.20;;;;;;;0.64;68.43;101639.97;1690263;84;26580;-48
2023/02/10 08:26:45;;;;;;;97.95;88.85;;;;;;;0.81;68.28;101629.14;1682766;85;25387;-49
2023/02/10 08:29:12;;;;;;;94.72;85.87;;;;;;;0.99;67.86;101634.29;1690309;84;25755;-49
2023/02/10 08:31:42;;;;;;;100.30;91.02;;;;;;;1.01;67.67;101630.40;1682778;85;27526;-50
2023/02/10 08:34:16;;;;;;;97.75;88.70;;;;;;;0.96;67.23;101632.88;1690308;84;25461;-50
2023/02/10 08:36:45;;;;;;;95.72;87.42;;;;;;;0.84;67.32;101623.92;1682883;85;29433;-49
2023/02/10 08:39:14;;;;;;;97.80;88.97;;;;;;;0.76;67.51;101627.63;1690386;84;33258;-51
2023/02/10 08:41:43;;;;;;;96.72;87.78;;;;;;;0.64;67.66;101630.65;1682998;85;25640;-49
2023/02/10 08:44:13;;;;;;;69.47;62.83;;;;;;;0.53;67.95;101630.27;1690417;84;25442;-51
2023/02/10 08:46:39;;;;;;;97.90;88.75;;;;;;;0.50;68.27;101637.34;1670438;84;25498;-48
2023/02/10 08:49:07;;;;;;;96.67;87.57;;;;;;;0.46;68.66;101624.64;1682838;85;27375;-49
2023/02/10 08:51:33;;;;;;;98.60;89.10;;;;;;;0.43;68.70;101646.38;1690070;84;25789;-49
2023/02/10 08:54:03;;;;;;;96.60;87.80;;;;;;;0.38;69.02;101651.52;1682814;85;25539;-49
2023/02/10 08:56:29;;;;;;;99.13;90.10;;;;;;;0.34;69.15;101656.40;1690264;84;25408;-52
2023/02/10 08:58:58;;;;;;;97.50;88.37;;;;;;;0.34;69.36;101655.91;1682870;85;25567;-49
2023/02/10 09:01:26;;;;;;;102.85;93.40;;;;;;;0.37;69.42;101653.33;1691617;81;27397;-52
2023/02/10 09:03:54;;;;;;;101.12;91.65;;;;;;;0.32;69.53;101663.29;1682076;85;25662;-48
2023/02/10 09:06:30;;;;;;;99.97;90.65;;;;;;;0.27;69.56;101672.38;1688977;84;26339;-48
2023/02/10 09:08:56;;;;;;;97.42;88.47;;;;;;;0.25;69.98;101674.44;1682867;85;25590;-48
2023/02/10 09:11:24;;;;;;;99.17;90.00;;;;;;;0.23;70.10;101685.80;1670426;84;25447;-50
2023/02/10 09:13:52;;;;;;;96.90;88.33;;;;;;;0.21;70.28;101680.39;1682884;85;27397;-49
2023/02/10 09:16:19;;;;;;;98.42;89.65;;;;;;;0.16;70.38;101684.47;1690184;84;25967;-52
2023/02/10 09:18:45;;;;;;;101.72;92.37;;;;;;;0.18;70.84;101689.07;1682871;85;25480;-48
2023/02/10 09:21:12;;;;;;;99.35;90.05;;;;;;;0.19;70.86;101699.23;1690190;84;25667;-48
2023/02/10 09:23:38;;;;;;;99.42;90.07;;;;;;;0.22;71.16;101700.64;1682870;85;25634;-49
2023/02/10 09:26:05;;;;;;;95.83;86.90;;;;;;;0.20;70.87;101701.37;1690365;84;27962;-49
2023/02/10 09:28:31;;;;;;;99.55;89.92;;;;;;;0.20;71.17;101696.85;1682801;85;25455;-48
2023/02/10 09:30:58;;;;;;;95.22;86.08;;;;;;;0.19;71.07;101687.25;1690303;84;25565;-48
2023/02/10 09:33:24;;;;;;;97.95;88.75;;;;;;;0.18;71.84;101675.77;1682952;85;25893;-48
2023/02/10 09:35:50;;;;;;;96.60;87.57;;;;;;;0.20;71.65;101695.52;1690287;84;25432;-48
2023/02/10 09:38:17;;;;;;;98.92;89.72;;;;;;;0.27;71.77;101702.98;1682906;85;27335;-48
2023/02/10 09:41:04;;;;;;;99.22;90.17;;;;;;;0.35;71.92;101687.33;1690148;84;25571;-50
2023/02/10 09:44:07;;;;;;;99.75;90.30;;;;;;;0.37;71.81;101698.59;1682879;85;25423;-49
2023/02/10 09:47:01;;;;;;;102.32;92.65;;;;;;;0.43;71.83;101718.26;1690378;84;25390;-48
2023/02/10 09:49:52;;;;;;;99.95;90.03;;;;;;;0.45;71.97;101718.34;1683060;85;25623;-49
2023/02/10 09:52:52;;;;;;;101.12;91.60;;;;;;;0.49;71.82;101705.44;1695644;84;28092;-51
2023/02/10 09:55:35;;;;;;;99.77;90.20;;;;;;;0.49;71.74;101701.44;1691018;83;25533;-49
2023/02/10 09:58:12;;;;;;;101.05;91.28;;;;;;;0.47;71.62;101703.50;1691202;84;25600;-51
2023/02/10 10:00:45;;;;;;;103.55;93.05;;;;;;;0.45;71.74;101696.23;1691030;84;25630;-53
2023/02/10 10:03:17;;;;;;;96.17;86.95;;;;;;;0.42;71.69;101694.79;1691252;84;25629;-50
2023/02/10 10:06:00;;;;;;;98.03;88.17;;;;;;;0.42;72.05;101686.00;1690489;84;27539;-53
2023/02/10 10:08:56;;;;;;;98.60;88.95;;;;;;;0.39;72.48;101688.55;1690975;84;27242;-50
2023/02/10 10:11:40;;;;;;;98.72;89.22;;;;;;;0.37;71.98;101690.59;1691137;84;25518;-53
2023/02/10 10:14:30;;;;;;;98.82;88.58;;;;;;;0.35;72.17;101693.46;1691179;84;27416;-51
2023/02/10 10:17:37;;;;;;;99.05;89.58;;;;;;;0.33;72.43;101683.54;1691243;84;25554;-52
2023/02/10 10:20:37;;;;;;;98.12;88.58;;;;;;;0.37;72.46;101683.95;1690177;84;27396;-49
2023/02/10 10:23:45;;;;;;;99.50;89.80;;;;;;;0.44;72.76;101669.30;1691136;84;25582;-51
2023/02/10 10:26:49;;;;;;;98.50;88.85;;;;;;;0.45;72.56;101681.59;1691166;84;25619;-51
2023/02/10 10:29:45;;;;;;;96.53;87.72;;;;;;;0.44;72.50;101681.27;1691185;84;25497;-51
2023/02/10 10:32:21;;;;;;;98.27;88.90;;;;;;;0.47;72.84;101680.34;1690782;84;25599;-48
2023/02/10 10:34:53;;;;;;;97.10;87.50;;;;;;;0.57;73.08;101696.42;1690464;84;27335;-50
2023/02/10 10:37:24;;;;;;;96.63;87.25;;;;;;;0.59;72.78;101689.04;1691098;84;25403;-52
2023/02/10 10:39:58;;;;;;;101.15;91.45;;;;;;;0.62;72.77;101690.77;1691170;84;25653;-53
2023/02/10 10:42:46;;;;;;;100.33;90.12;;;;;;;0.64;73.06;101690.56;1690580;84;25493;-53
2023/02/10 10:45:29;;;;;;;98.40;88.62;;;;;;;0.62;72.77;101699.28;1691392;84;25546;-50
2023/02/10 10:48:01;;;;;;;100.02;90.12;;;;;;;0.59;72.90;101690.38;1691241;84;27356;-50
2023/02/10 10:50:28;;;;;;;99.42;89.77;;;;;;;0.60;73.07;101704.00;1691177;84;25617;-49
2023/02/10 10:52:56;;;;;;;97.92;88.95;;;;;;;0.59;73.08;101690.38;1691089;84;25408;-48
2023/02/10 10:55:37;;;;;;;99.87;89.85;;;;;;;0.61;73.25;101691.78;1691117;84;25578;-48
2023/02/10 10:58:11;;;;;;;99.77;89.97;;;;;;;0.61;73.29;101691.78;1689634;84;25467;-52
2023/02/10 11:00:41;;;;;;;101.50;91.30;;;;;;;0.65;73.58;101692.22;1690080;84;27354;-50
2023/02/10 11:03:13;;;;;;;99.55;89.52;;;;;;;0.65;73.70;101696.20;1690068;84;25487;-49
2023/02/10 11:05:39;;;;;;;101.47;91.15;;;;;;;0.62;73.83;101696.62;1690860;84;25408;-48
2023/02/10 11:08:07;;;;;;;98.35;88.78;;;;;;;0.59;73.79;101693.03;1691112;84;25625;-51
2023/02/10 11:10:55;;;;;;;98.67;89.13;;;;;;;0.53;74.02;101686.19;1691171;84;25650;-53
2023/02/10 11:13:26;;;;;;;96.50;87.70;;;;;;;0.52;74.11;101682.39;1691142;84;27290;-53
2023/02/10 11:16:17;;;;;;;98.58;88.70;;;;;;;0.52;74.45;101688.53;1691068;84;25586;-50
2023/02/10 11:19:00;;;;;;;98.47;88.97;;;;;;;0.54;74.75;101693.65;1691227;84;25608;-49
2023/02/10 11:21:36;;;;;;;98.50;89.10;;;;;;;0.55;74.89;101700.10;1685608;85;25682;-49
2023/02/10 11:24:06;;;;;;;97.95;87.82;;;;;;;0.54;74.85;101689.66;1685440;84;25563;-49
2023/02/10 11:26:32;;;;;;;103.85;93.45;;;;;;;0.58;74.91;101704.70;1685763;84;27463;-50
2023/02/10 11:29:03;;;;;;;91.02;82.15;;;;;;;0.60;75.15;101698.16;1696621;83;25686;-51
2023/02/10 11:31:34;;;;;;;82.02;70.55;;;;;;;0.65;75.48;101693.02;1690481;84;25586;-55
2023/02/10 11:34:21;;;;;;;89.47;80.85;;;;;;;0.66;75.31;101696.50;1691080;84;25622;-50